Aérodrome :
LOGIN :

S'inscrire | Disclaimer

   EN    FR    IT 

 










Légende :    VFR   VFR Marginal   IFR   IFR Intensif   IFR Très Intensif
Visi : 
Plafond : 
>= 8 km
>= 3000ft
5 à 8 km
1000 à 3000 ft
1500m à 5 km
500 à 1000 ft
800 à 1500m
200 à 500 ft
< 800m
< 200 ft
Symboles :   Orages  Brouillard  Fortes neiges  Fortes précipitations  Vent > 20 kt
SIGMETs :   Divers  Orages  Givrage  Turbulence  Onde Orograph.  Cendres Volcan.







- Altitude de l'aérodrome : 112 ft
- Code IATA : SVQ


LEZL - Sevilla San Pablo

DERNIER METAR :
  • 201830Z 33007KT CAVOK 12/06 Q1017 NOSIG

METARs EXPIRÉS :
  • 201800Z 33009KT CAVOK 14/06 Q1017 NOSIG
  • 201730Z 31007KT CAVOK 14/07 Q1017 NOSIG
  • 201700Z 34010KT CAVOK 16/06 Q1016 NOSIG
  • 201630Z 36009KT 320V020 9999 FEW048 17/06 Q1016 NOSIG
  • 201600Z 35008KT 320V030 9999 FEW048 17/06 Q1015 NOSIG

TAF TAF LEZL
Valide du 20 à 15h jusqu'au 21 à 15h UTC


201400Z 2015/2115 33010KT 9999 FEW040 TX17/2015Z TN05/2107Z
BECMG 2022/2024 03004KT
Pas de NOTAMs connus pour ce terrain.
1 SIGMET publié pour la FIR Madrid (LECM) :
 
Onde orographique forte
LECM SIGMET 2 VALID 201613/202000 LEVA
LECM MADRID FIR/UIR SEV MTW OBS AT 1613Z WI N3704 W00503 - N3632 W00430 - N3716 W00142 - N3838 W00240 - N3704 W00503 SFC/FL260 STNR NC=



MET'MAP, la Météo Aéronautique d'un coup d'oeil ! - Copyright ORBIFLY Décembre 2007 - Disclaimer

ORBIFLY MET'MAP TEAM :

Programmation & Développement : Alexandra Zaïnal
Conception & Développement : Baudouin d'Aumeries
Co-Programmation & Développement : Marc-Olivier Méhu
Soutien technique & logistique : Manuel Goepfert

Contact : metmap@orbifly.com




SOURCES & CREDITS :

   NOAA